createdAt,value
2017-05-07T00:00:58.818Z,58.00
2017-05-07T00:01:59.592Z,51.00
2017-05-07T00:03:00.614Z,59.00
2017-05-07T00:04:01.389Z,66.00
2017-05-07T00:05:02.158Z,59.00
2017-05-07T00:06:02.930Z,68.00
2017-05-07T00:07:03.702Z,63.00
2017-05-07T00:08:04.729Z,58.00
2017-05-07T00:09:05.497Z,47.00
2017-05-07T00:10:06.270Z,55.00
2017-05-07T00:11:07.043Z,64.00
2017-05-07T00:12:07.818Z,68.00
2017-05-07T00:13:08.838Z,65.00
2017-05-07T00:14:09.615Z,69.00
2017-05-07T00:15:10.385Z,68.00
2017-05-07T00:16:11.157Z,68.00
2017-05-07T00:17:11.929Z,70.00
2017-05-07T00:18:12.953Z,70.00
2017-05-07T00:19:13.726Z,57.00
2017-05-07T00:20:14.498Z,68.00
2017-05-07T00:21:15.270Z,69.00
2017-05-07T00:22:16.044Z,53.00
2017-05-07T00:23:17.068Z,78.00
2017-05-07T00:24:17.840Z,58.00
2017-05-07T00:25:18.614Z,65.00
2017-05-07T00:26:19.389Z,67.00
2017-05-07T00:27:20.162Z,73.00
2017-05-07T00:28:21.233Z,80.00
2017-05-07T00:29:22.008Z,70.00
2017-05-07T00:30:22.778Z,70.00
2017-05-07T00:31:23.549Z,74.00
2017-05-07T00:32:24.320Z,81.00
2017-05-07T00:33:25.340Z,79.00
2017-05-07T00:34:26.113Z,67.00
2017-05-07T00:35:26.886Z,68.00
2017-05-07T00:36:27.660Z,64.00
2017-05-07T00:37:28.430Z,71.00
2017-05-07T00:38:29.454Z,82.00
2017-05-07T00:39:30.227Z,64.00
2017-05-07T00:40:31.000Z,65.00
2017-05-07T00:41:31.768Z,60.00
2017-05-07T00:42:32.542Z,73.00
2017-05-07T00:43:33.565Z,83.00
2017-05-07T00:44:34.337Z,84.00
2017-05-07T00:45:35.110Z,69.00
2017-05-07T00:46:35.880Z,65.00
2017-05-07T00:47:36.652Z,81.00
2017-05-07T00:48:37.674Z,74.00
2017-05-07T00:49:38.446Z,101.00
2017-05-07T00:50:39.217Z,73.00
2017-05-07T00:51:39.990Z,78.00
2017-05-07T00:52:40.765Z,79.00
2017-05-07T00:53:41.786Z,60.00
2017-05-07T00:54:42.557Z,66.00
2017-05-07T00:55:43.329Z,75.00
2017-05-07T00:56:44.103Z,76.00
2017-05-07T00:57:44.874Z,75.00
2017-05-07T00:58:45.898Z,84.00
2017-05-07T00:59:46.667Z,79.00
2017-05-07T01:00:47.441Z,77.00
2017-05-07T01:01:48.210Z,76.00
2017-05-07T01:02:48.978Z,82.00
2017-05-07T01:03:50.000Z,88.00
2017-05-07T01:04:50.770Z,77.00
2017-05-07T01:05:51.543Z,85.00
2017-05-07T01:06:52.315Z,86.00
2017-05-07T01:07:53.086Z,83.00
2017-05-07T01:08:54.102Z,84.00
2017-05-07T01:09:54.872Z,94.00
2017-05-07T01:10:55.643Z,75.00
2017-05-07T01:11:56.413Z,81.00
2017-05-07T01:12:57.187Z,70.00
2017-05-07T01:13:58.208Z,73.00
2017-05-07T01:14:58.978Z,72.00
2017-05-07T01:15:59.751Z,90.00
2017-05-07T01:17:00.525Z,80.00
2017-05-07T01:18:01.296Z,84.00
2017-05-07T01:19:02.318Z,81.00
2017-05-07T01:20:03.090Z,85.00
2017-05-07T01:21:03.862Z,90.00
2017-05-07T01:22:04.635Z,87.00
2017-05-07T01:23:05.404Z,87.00
2017-05-07T01:24:06.425Z,92.00
2017-05-07T01:25:07.195Z,75.00
2017-05-07T01:26:07.968Z,73.00
2017-05-07T01:27:08.741Z,73.00
2017-05-07T01:28:09.512Z,71.00
2017-05-07T01:29:10.532Z,72.00
2017-05-07T01:30:11.305Z,76.00
2017-05-07T01:31:12.077Z,84.00
2017-05-07T01:32:12.848Z,85.00
2017-05-07T01:33:13.620Z,82.00
2017-05-07T01:34:14.640Z,76.00
2017-05-07T01:35:15.412Z,90.00
2017-05-07T01:36:16.185Z,79.00
2017-05-07T01:37:16.959Z,81.00
2017-05-07T01:38:17.729Z,87.00
2017-05-07T01:39:18.751Z,101.00
2017-05-07T01:40:19.521Z,90.00
2017-05-07T01:41:20.301Z,91.00
2017-05-07T01:42:21.061Z,83.00
2017-05-07T01:43:21.830Z,81.00
2017-05-07T01:44:23.042Z,88.00
2017-05-07T01:45:23.814Z,89.00
2017-05-07T01:46:24.586Z,80.00
2017-05-07T01:47:25.548Z,92.00
2017-05-07T01:48:26.320Z,78.00
2017-05-07T01:49:27.342Z,91.00
2017-05-07T01:50:28.121Z,75.00
2017-05-07T01:51:28.882Z,98.00
2017-05-07T01:52:29.652Z,99.00
2017-05-07T01:53:30.426Z,77.00
2017-05-07T01:54:31.445Z,82.00
2017-05-07T01:55:32.218Z,75.00
2017-05-07T01:56:32.987Z,86.00
2017-05-07T01:57:33.759Z,86.00
2017-05-07T01:58:34.531Z,84.00
2017-05-07T01:59:35.551Z,73.00
2017-05-07T02:00:36.323Z,91.00
2017-05-07T02:01:37.096Z,87.00
2017-05-07T02:02:37.864Z,88.00
2017-05-07T02:03:38.638Z,74.00
2017-05-07T02:04:39.660Z,77.00
2017-05-07T02:05:40.430Z,92.00
2017-05-07T02:06:41.202Z,116.00
2017-05-07T02:07:41.971Z,83.00
2017-05-07T02:08:42.749Z,102.00
2017-05-07T02:09:43.768Z,101.00
2017-05-07T02:10:44.538Z,80.00
2017-05-07T02:11:45.309Z,75.00
2017-05-07T02:12:46.078Z,84.00
2017-05-07T02:13:46.848Z,88.00
2017-05-07T02:14:47.872Z,87.00
2017-05-07T02:15:48.642Z,85.00
2017-05-07T02:16:49.414Z,104.00
2017-05-07T02:17:50.186Z,84.00
2017-05-07T02:18:50.957Z,86.00
2017-05-07T02:19:51.980Z,102.00
2017-05-07T02:20:52.753Z,83.00
2017-05-07T02:21:53.527Z,103.00
2017-05-07T02:22:54.490Z,78.00
2017-05-07T02:23:55.261Z,82.00
2017-05-07T02:24:56.283Z,91.00
2017-05-07T02:25:57.056Z,79.00
2017-05-07T02:26:57.824Z,95.00
2017-05-07T02:27:58.597Z,85.00
2017-05-07T02:28:59.368Z,93.00
2017-05-07T02:30:00.390Z,91.00
2017-05-07T02:31:01.168Z,80.00
2017-05-07T02:32:01.933Z,112.00
2017-05-07T02:33:02.889Z,75.00
2017-05-07T02:34:03.656Z,84.00
2017-05-07T02:35:04.679Z,91.00
2017-05-07T02:36:05.447Z,81.00
2017-05-07T02:37:06.220Z,94.00
2017-05-07T02:38:06.990Z,88.00
2017-05-07T02:39:07.760Z,94.00
2017-05-07T02:40:08.784Z,82.00
2017-05-07T02:41:09.553Z,90.00
2017-05-07T02:42:10.510Z,86.00
2017-05-07T02:43:11.278Z,88.00
2017-05-07T02:44:12.051Z,81.00
2017-05-07T02:45:13.074Z,96.00
2017-05-07T02:46:13.846Z,86.00
2017-05-07T02:47:14.615Z,86.00
2017-05-07T02:48:15.386Z,107.00
2017-05-07T02:49:16.157Z,73.00
2017-05-07T02:50:17.177Z,94.00
2017-05-07T02:51:17.949Z,95.00
2017-05-07T02:52:18.720Z,98.00
2017-05-07T02:53:19.490Z,89.00
2017-05-07T02:54:20.260Z,74.00
2017-05-07T02:55:21.285Z,105.00
2017-05-07T02:56:22.057Z,76.00
2017-05-07T02:57:22.825Z,83.00
2017-05-07T02:58:23.598Z,78.00
2017-05-07T02:59:24.366Z,107.00
2017-05-07T03:00:25.386Z,99.00
2017-05-07T03:01:26.157Z,91.00
2017-05-07T03:02:26.927Z,81.00
2017-05-07T03:03:27.699Z,83.00
2017-05-07T03:04:28.470Z,94.00
2017-05-07T03:05:29.490Z,97.00
2017-05-07T03:06:30.261Z,72.00
2017-05-07T03:07:31.033Z,85.00
2017-05-07T03:08:31.803Z,95.00
2017-05-07T03:09:32.570Z,98.00
2017-05-07T03:10:33.591Z,85.00
2017-05-07T03:11:34.362Z,97.00
2017-05-07T03:12:35.134Z,73.00
2017-05-07T03:13:35.905Z,100.00
2017-05-07T03:14:36.679Z,84.00
2017-05-07T03:15:37.699Z,103.00
2017-05-07T03:16:38.473Z,87.00
2017-05-07T03:17:39.239Z,87.00
2017-05-07T03:18:40.014Z,104.00
2017-05-07T03:19:40.785Z,109.00
2017-05-07T03:20:41.806Z,91.00
2017-05-07T03:21:42.575Z,86.00
2017-05-07T03:22:43.345Z,82.00
2017-05-07T03:23:44.115Z,98.00
2017-05-07T03:24:44.885Z,97.00
2017-05-07T03:25:45.909Z,84.00
2017-05-07T03:26:46.679Z,86.00
2017-05-07T03:27:47.451Z,92.00
2017-05-07T03:28:48.222Z,84.00
2017-05-07T03:29:48.992Z,84.00
2017-05-07T03:30:50.018Z,96.00
2017-05-07T03:31:50.789Z,96.00
2017-05-07T03:32:51.558Z,82.00
2017-05-07T03:33:52.334Z,110.00
2017-05-07T03:34:53.101Z,87.00
2017-05-07T03:35:54.123Z,84.00
2017-05-07T03:36:54.896Z,105.00
2017-05-07T03:37:55.667Z,77.00
2017-05-07T03:38:56.437Z,87.00
2017-05-07T03:39:57.209Z,80.00
2017-05-07T03:40:58.231Z,89.00
2017-05-07T03:41:59.001Z,89.00
2017-05-07T03:42:59.773Z,98.00
2017-05-07T03:44:00.554Z,81.00
2017-05-07T03:45:01.316Z,97.00
2017-05-07T03:46:02.337Z,94.00
2017-05-07T03:47:03.111Z,82.00
2017-05-07T03:48:03.885Z,68.00
2017-05-07T03:49:04.660Z,80.00
2017-05-07T03:50:05.435Z,97.00
2017-05-07T03:51:06.457Z,77.00
2017-05-07T03:52:07.227Z,83.00
2017-05-07T03:53:07.996Z,66.00
2017-05-07T03:54:08.771Z,73.00
2017-05-07T03:55:09.543Z,82.00
2017-05-07T03:56:10.568Z,89.00
2017-05-07T03:57:11.345Z,74.00
2017-05-07T03:58:12.120Z,78.00
2017-05-07T03:59:12.894Z,82.00
2017-05-07T04:00:13.665Z,79.00
2017-05-07T04:01:14.690Z,101.00
2017-05-07T04:02:15.466Z,82.00
2017-05-07T04:03:16.235Z,93.00
2017-05-07T04:04:17.008Z,74.00
2017-05-07T04:05:17.782Z,92.00
2017-05-07T04:06:18.806Z,76.00
2017-05-07T04:07:19.579Z,74.00
2017-05-07T04:08:20.354Z,97.00
2017-05-07T04:09:21.130Z,83.00
2017-05-07T04:10:21.904Z,86.00
2017-05-07T04:11:22.929Z,86.00
2017-05-07T04:12:23.703Z,79.00
2017-05-07T04:13:24.479Z,83.00
2017-05-07T04:14:25.253Z,80.00
2017-05-07T04:15:26.027Z,96.00
2017-05-07T04:16:27.051Z,71.00
2017-05-07T04:17:27.827Z,77.00
2017-05-07T04:18:28.788Z,90.00
2017-05-07T04:19:29.560Z,90.00
2017-05-07T04:20:30.335Z,104.00
2017-05-07T04:21:31.356Z,88.00
2017-05-07T04:22:32.131Z,72.00
2017-05-07T04:23:32.904Z,85.00
2017-05-07T04:24:33.679Z,100.00
2017-05-07T04:25:34.453Z,88.00
2017-05-07T04:26:35.482Z,88.00
2017-05-07T04:27:36.256Z,94.00
2017-05-07T04:28:37.031Z,73.00
2017-05-07T04:29:37.806Z,103.00
2017-05-07T04:30:38.762Z,73.00
2017-05-07T04:31:39.787Z,88.00
2017-05-07T04:32:40.563Z,81.00
2017-05-07T04:33:41.339Z,87.00
2017-05-07T04:34:42.113Z,93.00
2017-05-07T04:35:42.886Z,76.00
2017-05-07T04:36:43.912Z,70.00
2017-05-07T04:37:44.688Z,83.00
2017-05-07T04:38:45.460Z,80.00
2017-05-07T04:39:46.236Z,91.00
2017-05-07T04:40:47.009Z,88.00
2017-05-07T04:41:48.037Z,76.00
2017-05-07T04:42:48.812Z,78.00
2017-05-07T04:43:49.587Z,93.00
2017-05-07T04:44:50.365Z,65.00
2017-05-07T04:45:51.142Z,72.00
2017-05-07T04:46:52.167Z,91.00
2017-05-07T04:47:52.943Z,73.00
2017-05-07T04:48:53.718Z,64.00
2017-05-07T04:49:54.499Z,66.00
2017-05-07T04:50:55.273Z,72.00
2017-05-07T04:51:56.295Z,82.00
2017-05-07T04:52:57.073Z,75.00
2017-05-07T04:53:57.848Z,62.00
2017-05-07T04:54:58.624Z,83.00
2017-05-07T04:55:59.399Z,72.00
2017-05-07T04:57:00.424Z,69.00
2017-05-07T04:58:01.199Z,73.00
2017-05-07T04:59:01.975Z,69.00
2017-05-07T05:00:02.750Z,71.00
2017-05-07T05:01:03.526Z,77.00
2017-05-07T05:02:04.549Z,72.00
2017-05-07T05:03:05.323Z,78.00
2017-05-07T05:04:06.101Z,76.00
2017-05-07T05:05:06.877Z,63.00
2017-05-07T05:06:07.654Z,68.00
2017-05-07T05:07:08.679Z,84.00
2017-05-07T05:08:09.456Z,59.00
2017-05-07T05:09:10.231Z,70.00
2017-05-07T05:10:11.193Z,73.00
2017-05-07T05:11:12.154Z,75.00
2017-05-07T05:12:13.202Z,60.00
2017-05-07T05:13:13.957Z,64.00
2017-05-07T05:14:14.732Z,64.00
2017-05-07T05:15:15.508Z,70.00
2017-05-07T05:16:16.286Z,62.00
2017-05-07T05:17:17.362Z,65.00
2017-05-07T05:18:18.138Z,88.00
2017-05-07T05:19:18.918Z,94.00
2017-05-07T05:20:19.694Z,87.00
2017-05-07T05:21:20.473Z,61.00
2017-05-07T05:22:21.499Z,74.00
2017-05-07T05:23:22.276Z,69.00
2017-05-07T05:24:23.056Z,59.00
2017-05-07T05:25:23.835Z,60.00
2017-05-07T05:26:24.607Z,64.00
2017-05-07T05:27:25.637Z,56.00
2017-05-07T05:28:26.415Z,81.00
2017-05-07T05:29:27.197Z,63.00
2017-05-07T05:30:27.979Z,58.00
2017-05-07T05:31:28.750Z,65.00
2017-05-07T05:32:29.779Z,78.00
2017-05-07T05:33:30.558Z,67.00
2017-05-07T05:34:31.338Z,77.00
2017-05-07T05:35:32.118Z,79.00
2017-05-07T05:36:32.896Z,61.00
2017-05-07T05:37:33.924Z,64.00
2017-05-07T05:38:34.700Z,75.00
2017-05-07T05:39:35.478Z,68.00
2017-05-07T05:40:36.256Z,76.00
2017-05-07T05:41:37.032Z,71.00
2017-05-07T05:42:38.061Z,57.00
2017-05-07T05:43:38.839Z,66.00
2017-05-07T05:44:39.628Z,57.00
2017-05-07T05:45:40.405Z,63.00
2017-05-07T05:46:41.186Z,68.00
2017-05-07T05:47:42.215Z,76.00
2017-05-07T05:48:42.992Z,78.00
2017-05-07T05:49:43.770Z,66.00
2017-05-07T05:50:44.550Z,58.00
2017-05-07T05:51:45.325Z,72.00
2017-05-07T05:52:46.378Z,76.00
2017-05-07T05:53:47.249Z,74.00
2017-05-07T05:54:48.175Z,65.00
2017-05-07T05:55:49.021Z,85.00
2017-05-07T05:56:49.854Z,81.00
2017-05-07T05:57:51.007Z,74.00
2017-05-07T05:58:51.787Z,60.00
2017-05-07T05:59:52.566Z,85.00
2017-05-07T06:00:53.343Z,69.00
2017-05-07T06:01:54.196Z,85.00
2017-05-07T06:02:55.338Z,67.00
2017-05-07T06:03:56.113Z,69.00
2017-05-07T06:04:56.895Z,76.00
2017-05-07T06:05:57.671Z,77.00
2017-05-07T06:06:58.447Z,60.00
2017-05-07T06:07:59.473Z,64.00
2017-05-07T06:09:00.253Z,89.00
2017-05-07T06:10:01.034Z,78.00
2017-05-07T06:11:01.825Z,79.00
2017-05-07T06:12:02.599Z,74.00
2017-05-07T06:13:03.626Z,67.00
2017-05-07T06:14:04.405Z,75.00
2017-05-07T06:15:05.186Z,80.00
2017-05-07T06:16:05.967Z,85.00
2017-05-07T06:17:06.811Z,66.00
2017-05-07T06:18:07.965Z,65.00
2017-05-07T06:19:08.783Z,85.00
2017-05-07T06:20:09.560Z,71.00
2017-05-07T06:21:10.342Z,66.00
2017-05-07T06:22:11.120Z,69.00
2017-05-07T06:23:12.299Z,63.00
2017-05-07T06:24:13.093Z,102.00
2017-05-07T06:25:13.872Z,75.00
2017-05-07T06:26:14.658Z,87.00
2017-05-07T06:27:15.431Z,66.00
2017-05-07T06:28:16.564Z,77.00
2017-05-07T06:29:17.341Z,71.00
2017-05-07T06:30:18.150Z,82.00
2017-05-07T06:31:18.913Z,71.00
2017-05-07T06:32:19.693Z,72.00
2017-05-07T06:33:20.871Z,78.00
2017-05-07T06:34:21.676Z,74.00
2017-05-07T06:35:22.455Z,65.00
2017-05-07T06:36:23.229Z,61.00
2017-05-07T06:37:24.010Z,70.00
2017-05-07T06:38:25.127Z,76.00
2017-05-07T06:39:25.969Z,65.00
2017-05-07T06:40:26.945Z,63.00
2017-05-07T06:41:27.726Z,83.00
2017-05-07T06:42:28.504Z,70.00
2017-05-07T06:43:29.613Z,70.00
2017-05-07T06:44:30.444Z,73.00
2017-05-07T06:45:31.218Z,85.00
2017-05-07T06:46:31.998Z,76.00
2017-05-07T06:47:32.823Z,70.00
2017-05-07T06:48:33.977Z,79.00
2017-05-07T06:49:34.787Z,78.00
2017-05-07T06:50:35.564Z,85.00
2017-05-07T06:51:36.348Z,71.00
2017-05-07T06:52:37.123Z,83.00
2017-05-07T06:53:38.258Z,80.00
2017-05-07T06:54:39.061Z,75.00
2017-05-07T06:55:39.841Z,83.00
2017-05-07T06:56:40.620Z,75.00
2017-05-07T06:57:41.412Z,80.00
2017-05-07T06:58:42.441Z,91.00
2017-05-07T06:59:43.220Z,82.00
2017-05-07T07:00:43.999Z,95.00
2017-05-07T07:01:44.867Z,81.00
2017-05-07T07:02:45.677Z,75.00
2017-05-07T07:03:46.771Z,73.00
2017-05-07T07:04:47.560Z,79.00
2017-05-07T07:05:48.537Z,89.00
2017-05-07T07:06:49.357Z,79.00
2017-05-07T07:07:50.150Z,81.00
2017-05-07T07:08:51.181Z,97.00
2017-05-07T07:09:51.959Z,83.00
2017-05-07T07:10:52.738Z,65.00
2017-05-07T07:11:53.517Z,73.00
2017-05-07T07:12:54.298Z,76.00
2017-05-07T07:13:55.330Z,74.00
2017-05-07T07:14:56.107Z,82.00
2017-05-07T07:15:56.889Z,69.00
2017-05-07T07:16:57.854Z,78.00
2017-05-07T07:17:58.635Z,88.00
2017-05-07T07:18:59.665Z,79.00
2017-05-07T07:20:00.443Z,85.00
2017-05-07T07:21:01.225Z,69.00
2017-05-07T07:22:02.007Z,69.00
2017-05-07T07:23:02.783Z,74.00
2017-05-07T07:24:03.816Z,78.00
2017-05-07T07:25:04.597Z,60.00
2017-05-07T07:26:05.376Z,73.00
2017-05-07T07:27:06.153Z,77.00
2017-05-07T07:28:06.934Z,74.00
2017-05-07T07:29:07.965Z,74.00
2017-05-07T07:30:08.746Z,79.00
2017-05-07T07:31:09.528Z,85.00
2017-05-07T07:32:10.314Z,81.00
2017-05-07T07:33:11.087Z,81.00
2017-05-07T07:34:12.118Z,73.00
2017-05-07T07:35:12.896Z,90.00
2017-05-07T07:36:13.679Z,79.00
2017-05-07T07:37:14.458Z,83.00
2017-05-07T07:38:15.235Z,74.00
2017-05-07T07:39:16.264Z,77.00
2017-05-07T07:40:17.045Z,67.00
2017-05-07T07:41:17.824Z,88.00
2017-05-07T07:42:18.602Z,76.00
2017-05-07T07:43:19.384Z,71.00
2017-05-07T07:44:20.415Z,82.00
2017-05-07T07:45:21.196Z,84.00
2017-05-07T07:46:21.976Z,58.00
2017-05-07T07:47:22.757Z,64.00
2017-05-07T07:48:23.536Z,77.00
2017-05-07T07:49:24.569Z,81.00
2017-05-07T07:50:25.350Z,85.00
2017-05-07T07:51:26.128Z,83.00
2017-05-07T07:52:26.907Z,74.00
2017-05-07T07:53:27.687Z,62.00
2017-05-07T07:54:28.720Z,82.00
2017-05-07T07:55:29.502Z,72.00
2017-05-07T07:56:30.287Z,67.00
2017-05-07T07:57:31.059Z,67.00
2017-05-07T07:58:31.839Z,60.00
2017-05-07T07:59:32.870Z,91.00
2017-05-07T08:00:33.651Z,67.00
2017-05-07T08:01:34.432Z,67.00
2017-05-07T08:02:35.213Z,83.00
2017-05-07T08:03:35.989Z,71.00
2017-05-07T08:04:37.019Z,63.00
2017-05-07T08:05:37.800Z,71.00
2017-05-07T08:06:38.623Z,78.00
2017-05-07T08:07:39.472Z,82.00
2017-05-07T08:08:40.278Z,83.00
2017-05-07T08:09:41.308Z,90.00
2017-05-07T08:10:42.087Z,84.00
2017-05-07T08:11:42.976Z,72.00
2017-05-07T08:12:43.891Z,71.00
2017-05-07T08:13:44.748Z,66.00
2017-05-07T08:14:45.774Z,79.00
2017-05-07T08:15:46.609Z,85.00
2017-05-07T08:16:47.498Z,84.00
2017-05-07T08:17:48.298Z,80.00
2017-05-07T08:18:49.078Z,78.00
2017-05-07T08:19:50.107Z,66.00
2017-05-07T08:20:50.966Z,67.00
2017-05-07T08:21:51.763Z,86.00
2017-05-07T08:22:52.544Z,84.00
2017-05-07T08:23:53.373Z,78.00
2017-05-07T08:24:54.403Z,64.00
2017-05-07T08:25:55.185Z,58.00
2017-05-07T08:26:55.998Z,73.00
2017-05-07T08:27:56.808Z,75.00
2017-05-07T08:28:57.611Z,50.00
2017-05-07T08:29:58.645Z,72.00
2017-05-07T08:30:59.453Z,62.00
2017-05-07T08:32:00.252Z,81.00
2017-05-07T08:33:01.036Z,69.00
2017-05-07T08:34:01.842Z,59.00
2017-05-07T08:35:03.005Z,57.00
2017-05-07T08:36:03.797Z,61.00
2017-05-07T08:37:04.581Z,59.00
2017-05-07T08:38:05.366Z,72.00
2017-05-07T08:39:06.148Z,59.00
2017-05-07T08:40:07.322Z,79.00
2017-05-07T08:41:08.119Z,78.00
2017-05-07T08:42:08.936Z,63.00
2017-05-07T08:43:09.745Z,58.00
2017-05-07T08:44:10.530Z,58.00
2017-05-07T08:45:11.605Z,64.00
2017-05-07T08:46:12.387Z,69.00
2017-05-07T08:47:13.171Z,62.00
2017-05-07T08:48:13.949Z,69.00
2017-05-07T08:49:14.769Z,64.00
2017-05-07T08:50:15.830Z,81.00
2017-05-07T08:51:16.613Z,74.00
2017-05-07T08:52:17.403Z,66.00
2017-05-07T08:53:18.229Z,79.00
2017-05-07T08:54:19.016Z,75.00
2017-05-07T08:55:20.066Z,60.00
2017-05-07T08:56:20.888Z,67.00
2017-05-07T08:57:21.672Z,64.00
2017-05-07T08:58:22.454Z,82.00
2017-05-07T08:59:23.302Z,67.00
2017-05-07T09:00:24.419Z,62.00
2017-05-07T09:01:25.188Z,67.00
2017-05-07T09:02:25.971Z,64.00
2017-05-07T09:03:26.830Z,81.00
2017-05-07T09:04:27.664Z,63.00
2017-05-07T09:05:28.777Z,67.00
2017-05-07T09:06:29.559Z,77.00
2017-05-07T09:07:30.339Z,70.00
2017-05-07T09:08:31.139Z,59.00
2017-05-07T09:09:31.946Z,88.00
2017-05-07T09:10:32.980Z,63.00
2017-05-07T09:11:33.763Z,77.00
2017-05-07T09:12:34.545Z,71.00
2017-05-07T09:13:35.329Z,72.00
2017-05-07T09:14:36.165Z,60.00
2017-05-07T09:15:37.256Z,70.00
2017-05-07T09:16:38.039Z,74.00
2017-05-07T09:17:38.819Z,60.00
2017-05-07T09:18:39.601Z,71.00
2017-05-07T09:19:40.575Z,64.00
2017-05-07T09:20:41.606Z,59.00
2017-05-07T09:21:42.387Z,74.00
2017-05-07T09:22:43.170Z,72.00
2017-05-07T09:23:43.951Z,61.00
2017-05-07T09:24:44.730Z,71.00
2017-05-07T09:25:45.761Z,74.00
2017-05-07T09:26:46.543Z,64.00
2017-05-07T09:27:47.325Z,53.00
2017-05-07T09:28:48.108Z,73.00
2017-05-07T09:29:48.887Z,81.00
2017-05-07T09:30:49.919Z,65.00
2017-05-07T09:31:50.702Z,70.00
2017-05-07T09:32:51.487Z,65.00
2017-05-07T09:33:52.269Z,62.00
2017-05-07T09:34:53.052Z,69.00
2017-05-07T09:35:54.087Z,72.00
2017-05-07T09:36:54.869Z,81.00
2017-05-07T09:37:55.658Z,56.00
2017-05-07T09:38:56.439Z,68.00
2017-05-07T09:39:57.224Z,70.00
2017-05-07T09:40:58.261Z,56.00
2017-05-07T09:41:59.042Z,62.00
2017-05-07T09:42:59.829Z,69.00
2017-05-07T09:44:00.661Z,70.00
2017-05-07T09:45:01.491Z,63.00
2017-05-07T09:46:02.510Z,56.00
2017-05-07T09:47:03.337Z,61.00
2017-05-07T09:48:04.129Z,53.00
2017-05-07T09:49:04.915Z,65.00
2017-05-07T09:50:05.705Z,78.00
2017-05-07T09:51:06.741Z,69.00
2017-05-07T09:52:07.588Z,61.00
2017-05-07T09:53:08.371Z,63.00
2017-05-07T09:54:09.170Z,80.00
2017-05-07T09:55:09.962Z,71.00
2017-05-07T09:56:11.077Z,61.00
2017-05-07T09:57:11.873Z,62.00
2017-05-07T09:58:12.665Z,71.00
2017-05-07T09:59:13.458Z,72.00
2017-05-07T10:00:14.304Z,53.00
2017-05-07T10:01:15.343Z,71.00
2017-05-07T10:02:16.185Z,61.00
2017-05-07T10:03:16.973Z,57.00
2017-05-07T10:04:17.763Z,70.00
2017-05-07T10:05:18.551Z,76.00
2017-05-07T10:06:19.690Z,65.00
2017-05-07T10:07:20.502Z,51.00
2017-05-07T10:08:21.291Z,64.00
2017-05-07T10:09:22.137Z,53.00
2017-05-07T10:10:22.968Z,73.00
2017-05-07T10:11:24.012Z,54.00
2017-05-07T10:12:24.871Z,59.00
2017-05-07T10:13:25.668Z,75.00
2017-05-07T10:14:26.459Z,55.00
2017-05-07T10:15:27.299Z,56.00
2017-05-07T10:16:28.340Z,51.00
2017-05-07T10:17:29.133Z,45.00
2017-05-07T10:18:29.928Z,48.00
2017-05-07T10:19:30.716Z,47.00
2017-05-07T10:20:31.563Z,56.00
2017-05-07T10:21:32.618Z,57.00
2017-05-07T10:22:33.452Z,49.00
2017-05-07T10:23:34.300Z,63.00
2017-05-07T10:24:35.151Z,48.00
2017-05-07T10:25:35.944Z,56.00
2017-05-07T10:26:36.984Z,55.00
2017-05-07T10:27:37.827Z,45.00
2017-05-07T10:28:38.653Z,50.00
2017-05-07T10:29:39.513Z,44.00
2017-05-07T10:30:40.374Z,56.00
2017-05-07T10:31:41.424Z,51.00
2017-05-07T10:32:42.212Z,37.00
2017-05-07T10:33:43.062Z,54.00
2017-05-07T10:34:43.893Z,53.00
2017-05-07T10:35:44.686Z,58.00
2017-05-07T10:36:45.755Z,59.00
2017-05-07T10:37:46.538Z,56.00
2017-05-07T10:38:47.328Z,56.00
2017-05-07T10:39:48.164Z,65.00
2017-05-07T10:40:48.958Z,56.00
2017-05-07T10:41:50.098Z,51.00
2017-05-07T10:42:50.885Z,59.00
2017-05-07T10:43:51.675Z,47.00
2017-05-07T10:44:52.468Z,54.00
2017-05-07T10:45:53.250Z,52.00
2017-05-07T10:46:54.337Z,59.00
2017-05-07T10:47:55.123Z,57.00
2017-05-07T10:48:55.911Z,55.00
2017-05-07T10:49:56.812Z,56.00
2017-05-07T10:50:57.581Z,60.00
2017-05-07T10:51:58.622Z,57.00
2017-05-07T10:52:59.497Z,75.00
2017-05-07T10:54:00.411Z,77.00
2017-05-07T10:55:01.225Z,59.00
2017-05-07T10:56:02.029Z,61.00
2017-05-07T10:57:03.118Z,62.00
2017-05-07T10:58:04.305Z,66.00
2017-05-07T10:59:05.122Z,58.00
2017-05-07T11:00:05.970Z,59.00
2017-05-07T11:01:06.768Z,54.00
2017-05-07T11:02:07.829Z,63.00
2017-05-07T11:03:08.627Z,57.00
2017-05-07T11:04:09.515Z,45.00
2017-05-07T11:05:10.326Z,55.00
2017-05-07T11:06:11.176Z,43.00
2017-05-07T11:07:12.282Z,48.00
2017-05-07T11:08:13.074Z,51.00
2017-05-07T11:09:13.863Z,47.00
2017-05-07T11:10:14.707Z,52.00
2017-05-07T11:11:15.498Z,54.00
2017-05-07T11:12:16.541Z,49.00
2017-05-07T11:13:17.388Z,55.00
2017-05-07T11:14:18.219Z,50.00
2017-05-07T11:15:19.034Z,43.00
2017-05-07T11:16:19.878Z,46.00
2017-05-07T11:17:20.954Z,39.00
2017-05-07T11:18:21.747Z,39.00
2017-05-07T11:19:22.543Z,46.00
2017-05-07T11:20:23.421Z,43.00
2017-05-07T11:21:24.209Z,41.00
2017-05-07T11:22:25.302Z,49.00
2017-05-07T11:23:26.096Z,53.00
2017-05-07T11:24:26.929Z,37.00
2017-05-07T11:25:27.738Z,41.00
2017-05-07T11:26:28.609Z,37.00
2017-05-07T11:27:29.653Z,45.00
2017-05-07T11:28:30.450Z,40.00
2017-05-07T11:29:31.333Z,42.00
2017-05-07T11:30:32.143Z,44.00
2017-05-07T11:31:32.934Z,40.00
2017-05-07T11:32:33.978Z,35.00
2017-05-07T11:33:34.771Z,46.00
2017-05-07T11:34:35.564Z,44.00
2017-05-07T11:35:36.414Z,40.00
2017-05-07T11:36:37.273Z,43.00
2017-05-07T11:37:38.361Z,43.00
2017-05-07T11:38:39.151Z,45.00
2017-05-07T11:39:39.942Z,37.00
2017-05-07T11:40:40.796Z,38.00
2017-05-07T11:41:41.624Z,47.00
2017-05-07T11:42:42.684Z,37.00
2017-05-07T11:43:43.474Z,48.00
2017-05-07T11:44:44.368Z,46.00
2017-05-07T11:45:45.181Z,45.00
2017-05-07T11:46:45.969Z,51.00
2017-05-07T11:47:47.042Z,57.00
2017-05-07T11:48:47.830Z,52.00
2017-05-07T11:49:48.620Z,45.00
2017-05-07T11:50:49.410Z,59.00
2017-05-07T11:51:50.195Z,44.00
2017-05-07T11:52:51.249Z,39.00
2017-05-07T11:53:52.114Z,49.00
2017-05-07T11:54:53.913Z,38.00
2017-05-07T11:55:54.698Z,41.00
2017-05-07T11:56:55.484Z,45.00
2017-05-07T11:57:56.583Z,46.00
2017-05-07T11:58:57.427Z,41.00
2017-05-07T11:59:58.213Z,53.00
2017-05-07T12:00:59.077Z,41.00
2017-05-07T12:01:59.971Z,38.00
2017-05-07T12:03:01.020Z,33.00
2017-05-07T12:04:01.808Z,35.00
2017-05-07T12:05:02.651Z,37.00
2017-05-07T12:06:03.439Z,47.00
2017-05-07T12:07:04.229Z,51.00
2017-05-07T12:08:05.265Z,37.00
2017-05-07T12:09:06.054Z,40.00
2017-05-07T12:10:06.837Z,33.00
2017-05-07T12:11:07.624Z,33.00
2017-05-07T12:12:08.412Z,33.00
2017-05-07T12:13:09.446Z,34.00
2017-05-07T12:14:10.232Z,37.00
2017-05-07T12:15:11.018Z,31.00
2017-05-07T12:16:11.932Z,31.00
2017-05-07T12:17:13.657Z,35.00
2017-05-07T12:18:14.725Z,35.00
2017-05-07T12:19:15.515Z,30.00
2017-05-07T12:20:16.303Z,29.00
2017-05-07T12:21:17.091Z,32.00
2017-05-07T12:22:17.910Z,35.00
2017-05-07T12:23:18.973Z,57.00
2017-05-07T12:24:19.761Z,30.00
2017-05-07T12:25:20.575Z,39.00
2017-05-07T12:26:21.362Z,33.00
2017-05-07T12:27:22.150Z,32.00
2017-05-07T12:28:23.269Z,36.00
2017-05-07T12:29:24.090Z,45.00
2017-05-07T12:30:24.993Z,28.00
2017-05-07T12:31:25.788Z,39.00
2017-05-07T12:32:26.581Z,39.00
2017-05-07T12:33:27.611Z,43.00
2017-05-07T12:34:28.398Z,33.00
2017-05-07T12:35:29.184Z,30.00
2017-05-07T12:36:30.008Z,37.00
2017-05-07T12:37:30.796Z,33.00
2017-05-07T12:38:31.835Z,37.00
2017-05-07T12:39:32.622Z,35.00
2017-05-07T12:40:33.421Z,33.00
2017-05-07T12:41:34.222Z,39.00
2017-05-07T12:42:35.008Z,34.00
2017-05-07T12:43:36.049Z,42.00
2017-05-07T12:44:36.836Z,42.00
2017-05-07T12:45:37.676Z,31.00
2017-05-07T12:46:38.489Z,39.00
2017-05-07T12:47:39.277Z,32.00
2017-05-07T12:48:40.372Z,45.00
2017-05-07T12:49:41.159Z,47.00
2017-05-07T12:50:41.944Z,33.00
2017-05-07T12:51:42.789Z,43.00
2017-05-07T12:52:43.577Z,51.00
2017-05-07T12:53:44.640Z,32.00
2017-05-07T12:54:45.456Z,41.00
2017-05-07T12:55:46.582Z,43.00
2017-05-07T12:56:48.301Z,49.00
2017-05-07T12:57:49.083Z,36.00
2017-05-07T12:58:50.121Z,32.00
2017-05-07T12:59:50.908Z,43.00
2017-05-07T13:00:51.696Z,30.00
2017-05-07T13:01:52.481Z,40.00
2017-05-07T13:02:53.267Z,44.00